Zwettl Stadt, Austria
Current Conditions -  °F | °C
As of 9:50 PM on Tuesday 21 Oct 2014 (Local Time) from LOXT Reporting Station
Broken Clouds Broken Clouds  
Wind Chill: 55°   Ceiling: 11000
Heat Index: 55°   Visibility: 16mi
Dew Point: 54°   Wind: 2mph
Humidity: 94%   Direction: NA
Pressure: 29.65"   Gusts: NA
Location:  48.62°N, 15.17°E
Report Text: LOXT 211950Z VRB02KT 25KM FEW020CU SCT080AC BKN110AC 13/12 Q1004 RMK BKN
Loading
Personal Weather Stations






























Interactive Weather Map
Tropical Storm Tracking
New forecast layout! Learn more

10-Day Weather Forecast

Advertisements
Track Severe Weather on mobile